1A5

Macon County Airport

Franklin, North Carolina, USA
METAR K1A5 150820Z AUTO 00000KT 5SM -RA SCT004 BKN027 OVC033 06/06 A3009 RMK AO2 T00600060
Observed Flight Rules
Nov-15 @ 08:20 UTC (27 minutes ago) Marginal Visual Flight Rules
Visibility Clouds Conditions
5 miles
  • Scattered at 400' AGL
  • Broken at 2,700' AGL
  • Overcast at 3,300' AGL
  • Light Rain
Temperatures Readings
Current 6°C / 43°F
Dewpoint 6°C / 43°F
Humidity 100%
Altimeter 30.09" Hg
Pressure 1019 hPa
Elevation 616
METAR K1A5 150820Z AUTO 00000KT 5SM -RA SCT004 BKN027 OVC033 06/06 A3009 RMK AO2 T00600060
Observed Flight Rules
Nov-15 @ 08:20 UTC
(27 minutes ago)
MVFR
Clouds
  • Scattered at 400' AGL
  • Broken at 2,700' AGL
  • Overcast at 3,300' AGL
Conditions
  • Light Rain
Temperature Dewpoint
6°C / 43°F 6°C / 43°F
Humidity Altimeter Pressure
100% 30.09" Hg 1019 hPa